sensor_id;sensor_type;location;lat;lon;timestamp;noise_LAeq;noise_LA_min;noise_LA_max;noise_LA01;noise_LA95
67314;Laerm;57663;51.436;5.978;2022-12-11T00:00:03;41.67;40.01;43.24;;
67314;Laerm;57663;51.436;5.978;2022-12-11T00:00:14;43.66;40.50;48.10;;
67314;Laerm;57663;51.436;5.978;2022-12-11T00:00:24;41.99;40.32;43.33;;
67314;Laerm;57663;51.436;5.978;2022-12-11T00:00:36;41.35;39.40;43.43;;
67314;Laerm;57663;51.436;5.978;2022-12-11T00:00:46;41.06;39.09;46.03;;
67314;Laerm;57663;51.436;5.978;2022-12-11T00:00:57;40.73;38.95;43.65;;
67314;Laerm;57663;51.436;5.978;2022-12-11T00:01:11;41.40;38.79;49.96;;
67314;Laerm;57663;51.436;5.978;2022-12-11T00:01:22;40.57;38.37;45.62;;
67314;Laerm;57663;51.436;5.978;2022-12-11T00:01:32;41.28;38.43;58.37;;
67314;Laerm;57663;51.436;5.978;2022-12-11T00:01:42;41.67;39.19;56.35;;
67314;Laerm;57663;51.436;5.978;2022-12-11T00:01:53;41.00;39.57;42.50;;
67314;Laerm;57663;51.436;5.978;2022-12-11T00:02:03;41.70;39.53;43.61;;
67314;Laerm;57663;51.436;5.978;2022-12-11T00:02:14;42.88;41.21;44.63;;
67314;Laerm;57663;51.436;5.978;2022-12-11T00:02:24;43.50;41.94;45.43;;
67314;Laerm;57663;51.436;5.978;2022-12-11T00:02:34;43.74;42.00;46.75;;
67314;Laerm;57663;51.436;5.978;2022-12-11T00:02:45;42.54;40.71;44.30;;
67314;Laerm;57663;51.436;5.978;2022-12-11T00:02:55;43.45;41.35;46.92;;
67314;Laerm;57663;51.436;5.978;2022-12-11T00:03:05;43.75;41.92;49.85;;
67314;Laerm;57663;51.436;5.978;2022-12-11T00:03:16;40.71;37.33;43.59;;
67314;Laerm;57663;51.436;5.978;2022-12-11T00:03:26;39.50;37.77;41.72;;
67314;Laerm;57663;51.436;5.978;2022-12-11T00:03:37;39.97;38.59;41.68;;
67314;Laerm;57663;51.436;5.978;2022-12-11T00:03:48;40.16;38.19;41.65;;
67314;Laerm;57663;51.436;5.978;2022-12-11T00:03:58;40.67;39.15;42.35;;
67314;Laerm;57663;51.436;5.978;2022-12-11T00:04:09;40.75;38.88;42.40;;
67314;Laerm;57663;51.436;5.978;2022-12-11T00:04:19;40.63;39.34;42.45;;
67314;Laerm;57663;51.436;5.978;2022-12-11T00:04:30;41.21;39.55;42.60;;
67314;Laerm;57663;51.436;5.978;2022-12-11T00:04:40;41.58;40.00;43.01;;
67314;Laerm;57663;51.436;5.978;2022-12-11T00:04:50;42.17;40.11;43.91;;
67314;Laerm;57663;51.436;5.978;2022-12-11T00:05:01;41.79;39.73;43.99;;
67314;Laerm;57663;51.436;5.978;2022-12-11T00:05:11;42.55;40.41;47.99;;
67314;Laerm;57663;51.436;5.978;2022-12-11T00:05:22;43.06;39.59;48.91;;
67314;Laerm;57663;51.436;5.978;2022-12-11T00:05:33;41.04;39.04;43.44;;
67314;Laerm;57663;51.436;5.978;2022-12-11T00:05:44;41.22;39.28;44.47;;
67314;Laerm;57663;51.436;5.978;2022-12-11T00:05:54;40.80;38.69;43.36;;
67314;Laerm;57663;51.436;5.978;2022-12-11T00:06:09;40.93;39.23;43.28;;
67314;Laerm;57663;51.436;5.978;2022-12-11T00:06:20;40.62;38.33;42.57;;
67314;Laerm;57663;51.436;5.978;2022-12-11T00:06:31;40.78;39.21;42.38;;
67314;Laerm;57663;51.436;5.978;2022-12-11T00:06:42;41.43;39.54;43.10;;
67314;Laerm;57663;51.436;5.978;2022-12-11T00:06:52;41.03;36.82;43.04;;
67314;Laerm;57663;51.436;5.978;2022-12-11T00:07:03;38.57;36.38;40.94;;
67314;Laerm;57663;51.436;5.978;2022-12-11T00:07:19;38.49;37.02;40.37;;
67314;Laerm;57663;51.436;5.978;2022-12-11T00:07:29;38.58;37.06;40.11;;
67314;Laerm;57663;51.436;5.978;2022-12-11T00:07:39;42.37;37.33;47.83;;
67314;Laerm;57663;51.436;5.978;2022-12-11T00:07:50;39.85;37.29;42.28;;
67314;Laerm;57663;51.436;5.978;2022-12-11T00:08:00;38.56;36.70;40.99;;
67314;Laerm;57663;51.436;5.978;2022-12-11T00:08:11;38.78;36.86;40.39;;
67314;Laerm;57663;51.436;5.978;2022-12-11T00:08:21;39.01;37.34;41.06;;
67314;Laerm;57663;51.436;5.978;2022-12-11T00:08:32;40.56;37.60;44.19;;
67314;Laerm;57663;51.436;5.978;2022-12-11T00:08:42;38.91;37.08;40.85;;
67314;Laerm;57663;51.436;5.978;2022-12-11T00:08:53;38.40;36.70;40.91;;
67314;Laerm;57663;51.436;5.978;2022-12-11T00:09:03;38.04;36.73;39.69;;
67314;Laerm;57663;51.436;5.978;2022-12-11T00:09:14;38.35;36.58;40.10;;
67314;Laerm;57663;51.436;5.978;2022-12-11T00:09:24;38.55;36.73;41.04;;
67314;Laerm;57663;51.436;5.978;2022-12-11T00:09:35;38.49;36.95;40.49;;
67314;Laerm;57663;51.436;5.978;2022-12-11T00:09:45;38.45;36.87;40.16;;
67314;Laerm;57663;51.436;5.978;2022-12-11T00:09:55;38.55;36.91;40.65;;
67314;Laerm;57663;51.436;5.978;2022-12-11T00:10:06;38.73;37.04;40.66;;
67314;Laerm;57663;51.436;5.978;2022-12-11T00:10:16;38.70;36.89;40.37;;
67314;Laerm;57663;51.436;5.978;2022-12-11T00:10:27;38.73;36.78;41.00;;
67314;Laerm;57663;51.436;5.978;2022-12-11T00:10:38;38.28;35.93;40.42;;
67314;Laerm;57663;51.436;5.978;2022-12-11T00:10:48;37.90;36.18;40.04;;
67314;Laerm;57663;51.436;5.978;2022-12-11T00:10:59;38.12;36.49;39.69;;
67314;Laerm;57663;51.436;5.978;2022-12-11T00:11:13;37.98;36.42;39.53;;
67314;Laerm;57663;51.436;5.978;2022-12-11T00:11:23;38.43;36.39;40.41;;
67314;Laerm;57663;51.436;5.978;2022-12-11T00:11:34;41.66;37.24;48.16;;
67314;Laerm;57663;51.436;5.978;2022-12-11T00:11:44;42.39;38.03;47.52;;
67314;Laerm;57663;51.436;5.978;2022-12-11T00:11:54;38.36;36.84;40.11;;
67314;Laerm;57663;51.436;5.978;2022-12-11T00:12:05;38.17;36.50;41.24;;
67314;Laerm;57663;51.436;5.978;2022-12-11T00:12:16;39.83;37.95;43.07;;
67314;Laerm;57663;51.436;5.978;2022-12-11T00:12:28;46.43;39.43;55.50;;
67314;Laerm;57663;51.436;5.978;2022-12-11T00:12:38;39.68;38.02;42.02;;
67314;Laerm;57663;51.436;5.978;2022-12-11T00:12:49;45.63;36.75;53.62;;
67314;Laerm;57663;51.436;5.978;2022-12-11T00:12:59;51.33;40.66;65.80;;
67314;Laerm;57663;51.436;5.978;2022-12-11T00:13:09;39.06;36.81;42.48;;
67314;Laerm;57663;51.436;5.978;2022-12-11T00:13:20;37.80;36.34;40.08;;
67314;Laerm;57663;51.436;5.978;2022-12-11T00:13:32;38.25;36.57;40.60;;
67314;Laerm;57663;51.436;5.978;2022-12-11T00:13:42;38.55;36.64;41.10;;
67314;Laerm;57663;51.436;5.978;2022-12-11T00:13:53;38.96;37.29;40.89;;
67314;Laerm;57663;51.436;5.978;2022-12-11T00:14:03;42.96;37.15;51.04;;
67314;Laerm;57663;51.436;5.978;2022-12-11T00:14:13;41.52;37.66;47.96;;
67314;Laerm;57663;51.436;5.978;2022-12-11T00:14:24;39.44;37.28;41.99;;
67314;Laerm;57663;51.436;5.978;2022-12-11T00:14:34;38.51;36.78;40.07;;
67314;Laerm;57663;51.436;5.978;2022-12-11T00:14:45;40.51;37.94;43.89;;
67314;Laerm;57663;51.436;5.978;2022-12-11T00:14:55;43.85;37.36;54.07;;
67314;Laerm;57663;51.436;5.978;2022-12-11T00:15:05;38.97;37.18;41.95;;
67314;Laerm;57663;51.436;5.978;2022-12-11T00:15:16;39.48;37.71;41.58;;
67314;Laerm;57663;51.436;5.978;2022-12-11T00:15:26;43.38;39.47;53.28;;
67314;Laerm;57663;51.436;5.978;2022-12-11T00:15:37;39.17;37.42;41.54;;
67314;Laerm;57663;51.436;5.978;2022-12-11T00:15:47;41.46;36.95;49.43;;
67314;Laerm;57663;51.436;5.978;2022-12-11T00:15:57;41.33;37.58;47.35;;
67314;Laerm;57663;51.436;5.978;2022-12-11T00:16:08;38.36;36.63;40.97;;
67314;Laerm;57663;51.436;5.978;2022-12-11T00:16:19;38.29;36.72;40.51;;
67314;Laerm;57663;51.436;5.978;2022-12-11T00:16:29;38.54;36.83;40.80;;
67314;Laerm;57663;51.436;5.978;2022-12-11T00:16:40;38.70;36.94;40.47;;
67314;Laerm;57663;51.436;5.978;2022-12-11T00:16:51;44.89;39.09;52.03;;
67314;Laerm;57663;51.436;5.978;2022-12-11T00:17:01;38.89;36.85;40.98;;
67314;Laerm;57663;51.436;5.978;2022-12-11T00:17:11;37.77;36.10;39.47;;
67314;Laerm;57663;51.436;5.978;2022-12-11T00:17:22;38.29;36.37;42.51;;
67314;Laerm;57663;51.436;5.978;2022-12-11T00:17:32;41.04;36.77;52.95;;
67314;Laerm;57663;51.436;5.978;2022-12-11T00:17:42;38.14;36.82;43.28;;
67314;Laerm;57663;51.436;5.978;2022-12-11T00:17:53;39.24;36.24;48.76;;
67314;Laerm;57663;51.436;5.978;2022-12-11T00:18:03;38.96;37.19;41.15;;
67314;Laerm;57663;51.436;5.978;2022-12-11T00:18:14;38.73;36.95;43.73;;
67314;Laerm;57663;51.436;5.978;2022-12-11T00:18:24;49.61;39.64;58.33;;
67314;Laerm;57663;51.436;5.978;2022-12-11T00:18:34;38.89;37.15;41.43;;
67314;Laerm;57663;51.436;5.978;2022-12-11T00:18:45;43.16;38.22;47.49;;
67314;Laerm;57663;51.436;5.978;2022-12-11T00:18:55;44.83;37.44;55.96;;
67314;Laerm;57663;51.436;5.978;2022-12-11T00:19:06;38.71;36.77;40.11;;
67314;Laerm;57663;51.436;5.978;2022-12-11T00:19:16;38.45;36.78;43.55;;
67314;Laerm;57663;51.436;5.978;2022-12-11T00:19:26;38.60;36.53;42.30;;
67314;Laerm;57663;51.436;5.978;2022-12-11T00:19:37;38.46;36.44;40.35;;
67314;Laerm;57663;51.436;5.978;2022-12-11T00:19:47;38.20;36.59;40.07;;
67314;Laerm;57663;51.436;5.978;2022-12-11T00:19:58;38.89;36.51;53.18;;
67314;Laerm;57663;51.436;5.978;2022-12-11T00:20:08;39.17;36.76;47.17;;
67314;Laerm;57663;51.436;5.978;2022-12-11T00:20:18;38.77;36.82;40.62;;
67314;Laerm;57663;51.436;5.978;2022-12-11T00:20:29;51.22;37.73;62.62;;
67314;Laerm;57663;51.436;5.978;2022-12-11T00:20:39;42.41;39.27;47.21;;
67314;Laerm;57663;51.436;5.978;2022-12-11T00:20:53;42.16;37.58;49.80;;
67314;Laerm;57663;51.436;5.978;2022-12-11T00:21:04;42.74;38.17;48.99;;
67314;Laerm;57663;51.436;5.978;2022-12-11T00:21:14;40.09;37.33;44.55;;
67314;Laerm;57663;51.436;5.978;2022-12-11T00:21:25;38.83;36.92;40.65;;
67314;Laerm;57663;51.436;5.978;2022-12-11T00:21:35;39.19;37.12;41.96;;
67314;Laerm;57663;51.436;5.978;2022-12-11T00:21:46;44.82;37.98;52.43;;
67314;Laerm;57663;51.436;5.978;2022-12-11T00:21:57;38.83;37.45;41.26;;
67314;Laerm;57663;51.436;5.978;2022-12-11T00:22:07;39.22;37.33;41.32;;
67314;Laerm;57663;51.436;5.978;2022-12-11T00:22:18;39.84;36.91;43.65;;
67314;Laerm;57663;51.436;5.978;2022-12-11T00:22:28;45.33;39.14;52.23;;
67314;Laerm;57663;51.436;5.978;2022-12-11T00:22:39;40.66;37.95;45.12;;
67314;Laerm;57663;51.436;5.978;2022-12-11T00:22:49;38.01;36.42;39.46;;
67314;Laerm;57663;51.436;5.978;2022-12-11T00:22:59;37.84;36.49;39.37;;
67314;Laerm;57663;51.436;5.978;2022-12-11T00:23:10;37.88;36.54;39.38;;
67314;Laerm;57663;51.436;5.978;2022-12-11T00:23:20;37.83;36.44;39.40;;
67314;Laerm;57663;51.436;5.978;2022-12-11T00:23:30;38.14;36.17;40.52;;
67314;Laerm;57663;51.436;5.978;2022-12-11T00:23:41;38.02;36.38;40.01;;
67314;Laerm;57663;51.436;5.978;2022-12-11T00:23:52;38.66;36.61;40.41;;
67314;Laerm;57663;51.436;5.978;2022-12-11T00:24:02;38.83;36.80;41.68;;
67314;Laerm;57663;51.436;5.978;2022-12-11T00:24:12;38.94;37.06;41.32;;
67314;Laerm;57663;51.436;5.978;2022-12-11T00:24:23;38.97;36.98;42.90;;
67314;Laerm;57663;51.436;5.978;2022-12-11T00:24:33;38.66;36.44;45.41;;
67314;Laerm;57663;51.436;5.978;2022-12-11T00:24:43;37.80;36.08;40.54;;
67314;Laerm;57663;51.436;5.978;2022-12-11T00:24:54;38.22;36.57;43.18;;
67314;Laerm;57663;51.436;5.978;2022-12-11T00:25:04;37.94;36.61;39.44;;
67314;Laerm;57663;51.436;5.978;2022-12-11T00:25:14;38.08;36.73;42.98;;
67314;Laerm;57663;51.436;5.978;2022-12-11T00:25:26;37.77;36.02;39.12;;
67314;Laerm;57663;51.436;5.978;2022-12-11T00:25:42;37.91;36.66;39.39;;
67314;Laerm;57663;51.436;5.978;2022-12-11T00:25:53;39.53;36.60;46.85;;
67314;Laerm;57663;51.436;5.978;2022-12-11T00:26:04;40.11;36.73;48.65;;
67314;Laerm;57663;51.436;5.978;2022-12-11T00:26:15;40.37;37.31;49.66;;
67314;Laerm;57663;51.436;5.978;2022-12-11T00:26:26;39.62;37.40;44.88;;
67314;Laerm;57663;51.436;5.978;2022-12-11T00:26:36;39.42;37.22;45.00;;
67314;Laerm;57663;51.436;5.978;2022-12-11T00:26:46;39.39;37.41;47.58;;
67314;Laerm;57663;51.436;5.978;2022-12-11T00:26:57;39.26;37.14;43.22;;
67314;Laerm;57663;51.436;5.978;2022-12-11T00:27:07;38.94;36.70;40.99;;
67314;Laerm;57663;51.436;5.978;2022-12-11T00:27:17;38.77;36.43;41.26;;
67314;Laerm;57663;51.436;5.978;2022-12-11T00:27:28;37.88;36.29;39.59;;
67314;Laerm;57663;51.436;5.978;2022-12-11T00:27:38;37.65;36.43;39.28;;
67314;Laerm;57663;51.436;5.978;2022-12-11T00:27:49;37.75;36.25;39.11;;
67314;Laerm;57663;51.436;5.978;2022-12-11T00:27:59;37.56;35.69;38.85;;
67314;Laerm;57663;51.436;5.978;2022-12-11T00:28:13;37.61;36.20;38.88;;
67314;Laerm;57663;51.436;5.978;2022-12-11T00:28:24;37.96;36.29;39.43;;
67314;Laerm;57663;51.436;5.978;2022-12-11T00:28:34;38.00;36.63;39.35;;
67314;Laerm;57663;51.436;5.978;2022-12-11T00:28:45;38.04;36.68;39.31;;
67314;Laerm;57663;51.436;5.978;2022-12-11T00:28:58;37.99;36.36;39.74;;
67314;Laerm;57663;51.436;5.978;2022-12-11T00:29:08;38.26;36.57;40.63;;
67314;Laerm;57663;51.436;5.978;2022-12-11T00:29:23;39.02;36.29;45.83;;
67314;Laerm;57663;51.436;5.978;2022-12-11T00:29:33;38.78;37.12;44.41;;
67314;Laerm;57663;51.436;5.978;2022-12-11T00:29:44;44.21;37.78;49.07;;
67314;Laerm;57663;51.436;5.978;2022-12-11T00:29:54;41.65;38.04;45.09;;
67314;Laerm;57663;51.436;5.978;2022-12-11T00:30:05;38.95;37.25;48.13;;
67314;Laerm;57663;51.436;5.978;2022-12-11T00:30:15;38.08;36.61;39.44;;
67314;Laerm;57663;51.436;5.978;2022-12-11T00:30:26;43.59;37.41;49.05;;
67314;Laerm;57663;51.436;5.978;2022-12-11T00:30:40;39.44;36.68;52.98;;
67314;Laerm;57663;51.436;5.978;2022-12-11T00:30:50;37.89;36.54;39.96;;
67314;Laerm;57663;51.436;5.978;2022-12-11T00:31:04;38.04;36.41;40.39;;
67314;Laerm;57663;51.436;5.978;2022-12-11T00:31:15;40.20;36.59;49.30;;
67314;Laerm;57663;51.436;5.978;2022-12-11T00:31:26;39.11;36.45;47.47;;
67314;Laerm;57663;51.436;5.978;2022-12-11T00:31:36;39.69;36.76;46.39;;
67314;Laerm;57663;51.436;5.978;2022-12-11T00:31:46;40.33;36.72;51.43;;
67314;Laerm;57663;51.436;5.978;2022-12-11T00:31:57;40.62;36.83;49.92;;
67314;Laerm;57663;51.436;5.978;2022-12-11T00:32:07;44.21;36.89;60.44;;
67314;Laerm;57663;51.436;5.978;2022-12-11T00:32:17;41.69;36.72;54.39;;
67314;Laerm;57663;51.436;5.978;2022-12-11T00:32:28;47.78;37.13;65.09;;
67314;Laerm;57663;51.436;5.978;2022-12-11T00:32:38;40.97;36.84;56.51;;
67314;Laerm;57663;51.436;5.978;2022-12-11T00:32:51;40.59;36.64;54.58;;
67314;Laerm;57663;51.436;5.978;2022-12-11T00:33:02;40.28;37.12;47.40;;
67314;Laerm;57663;51.436;5.978;2022-12-11T00:33:12;41.42;37.34;48.47;;
67314;Laerm;57663;51.436;5.978;2022-12-11T00:33:24;44.25;37.01;58.34;;
67314;Laerm;57663;51.436;5.978;2022-12-11T00:33:35;42.67;36.90;54.32;;
67314;Laerm;57663;51.436;5.978;2022-12-11T00:33:45;39.83;36.68;46.59;;
67314;Laerm;57663;51.436;5.978;2022-12-11T00:33:59;38.25;36.35;42.29;;
67314;Laerm;57663;51.436;5.978;2022-12-11T00:34:10;39.05;36.40;45.44;;
67314;Laerm;57663;51.436;5.978;2022-12-11T00:34:23;38.25;36.33;44.30;;
67314;Laerm;57663;51.436;5.978;2022-12-11T00:34:33;37.89;36.66;39.19;;
67314;Laerm;57663;51.436;5.978;2022-12-11T00:34:44;37.53;36.12;38.93;;
67314;Laerm;57663;51.436;5.978;2022-12-11T00:34:54;37.63;36.16;39.37;;
67314;Laerm;57663;51.436;5.978;2022-12-11T00:35:04;37.83;36.40;39.14;;
67314;Laerm;57663;51.436;5.978;2022-12-11T00:35:15;37.59;36.29;39.06;;
67314;Laerm;57663;51.436;5.978;2022-12-11T00:35:25;37.77;36.38;39.04;;
67314;Laerm;57663;51.436;5.978;2022-12-11T00:35:39;38.23;36.08;40.18;;
67314;Laerm;57663;51.436;5.978;2022-12-11T00:35:50;44.70;37.84;53.54;;
67314;Laerm;57663;51.436;5.978;2022-12-11T00:36:00;41.93;37.14;47.46;;
67314;Laerm;57663;51.436;5.978;2022-12-11T00:36:11;38.39;36.39;40.40;;
67314;Laerm;57663;51.436;5.978;2022-12-11T00:36:23;39.63;37.26;48.94;;
67314;Laerm;57663;51.436;5.978;2022-12-11T00:36:34;39.44;37.10;45.49;;
67314;Laerm;57663;51.436;5.978;2022-12-11T00:36:45;38.65;37.12;40.70;;
67314;Laerm;57663;51.436;5.978;2022-12-11T00:36:55;38.54;37.19;40.40;;
67314;Laerm;57663;51.436;5.978;2022-12-11T00:37:06;38.33;37.10;39.66;;
67314;Laerm;57663;51.436;5.978;2022-12-11T00:37:17;38.63;37.14;41.02;;
67314;Laerm;57663;51.436;5.978;2022-12-11T00:37:33;38.63;37.19;42.89;;
67314;Laerm;57663;51.436;5.978;2022-12-11T00:37:43;38.53;36.98;40.96;;
67314;Laerm;57663;51.436;5.978;2022-12-11T00:37:53;38.40;36.82;41.88;;
67314;Laerm;57663;51.436;5.978;2022-12-11T00:38:03;38.66;37.26;41.43;;
67314;Laerm;57663;51.436;5.978;2022-12-11T00:38:18;38.75;36.91;43.59;;
67314;Laerm;57663;51.436;5.978;2022-12-11T00:38:29;38.30;36.78;39.77;;
67314;Laerm;57663;51.436;5.978;2022-12-11T00:38:39;38.34;37.05;39.98;;
67314;Laerm;57663;51.436;5.978;2022-12-11T00:38:50;39.00;36.64;44.68;;
67314;Laerm;57663;51.436;5.978;2022-12-11T00:39:01;39.62;37.29;48.30;;
67314;Laerm;57663;51.436;5.978;2022-12-11T00:39:12;47.75;37.88;58.56;;
67314;Laerm;57663;51.436;5.978;2022-12-11T00:39:22;45.34;38.26;54.26;;
67314;Laerm;57663;51.436;5.978;2022-12-11T00:39:32;38.43;36.85;42.43;;
67314;Laerm;57663;51.436;5.978;2022-12-11T00:39:43;37.59;36.37;38.92;;
67314;Laerm;57663;51.436;5.978;2022-12-11T00:39:54;37.85;36.17;41.05;;
67314;Laerm;57663;51.436;5.978;2022-12-11T00:40:05;37.69;36.45;41.31;;
67314;Laerm;57663;51.436;5.978;2022-12-11T00:40:15;37.40;36.17;38.83;;
67314;Laerm;57663;51.436;5.978;2022-12-11T00:40:26;37.71;36.18;39.02;;
67314;Laerm;57663;51.436;5.978;2022-12-11T00:40:36;37.76;36.26;39.06;;
67314;Laerm;57663;51.436;5.978;2022-12-11T00:40:46;37.68;36.49;39.39;;
67314;Laerm;57663;51.436;5.978;2022-12-11T00:40:57;37.69;36.08;39.05;;
67314;Laerm;57663;51.436;5.978;2022-12-11T00:41:08;37.68;36.28;39.26;;
67314;Laerm;57663;51.436;5.978;2022-12-11T00:41:18;37.50;35.87;38.75;;
67314;Laerm;57663;51.436;5.978;2022-12-11T00:41:29;37.61;36.26;39.08;;
67314;Laerm;57663;51.436;5.978;2022-12-11T00:41:40;37.79;36.04;39.30;;
67314;Laerm;57663;51.436;5.978;2022-12-11T00:41:50;37.71;36.39;41.57;;
67314;Laerm;57663;51.436;5.978;2022-12-11T00:42:01;39.28;36.75;43.25;;
67314;Laerm;57663;51.436;5.978;2022-12-11T00:42:11;43.58;37.78;51.18;;
67314;Laerm;57663;51.436;5.978;2022-12-11T00:42:21;39.42;36.64;42.23;;
67314;Laerm;57663;51.436;5.978;2022-12-11T00:42:32;37.88;36.36;39.27;;
67314;Laerm;57663;51.436;5.978;2022-12-11T00:42:42;38.11;35.76;40.51;;
67314;Laerm;57663;51.436;5.978;2022-12-11T00:42:52;37.88;36.14;39.25;;
67314;Laerm;57663;51.436;5.978;2022-12-11T00:43:03;45.94;37.39;53.93;;
67314;Laerm;57663;51.436;5.978;2022-12-11T00:43:13;43.33;38.74;53.73;;
67314;Laerm;57663;51.436;5.978;2022-12-11T00:43:24;42.33;37.78;46.98;;
67314;Laerm;57663;51.436;5.978;2022-12-11T00:43:34;38.26;36.90;40.12;;
67314;Laerm;57663;51.436;5.978;2022-12-11T00:43:45;37.93;36.65;39.39;;
67314;Laerm;57663;51.436;5.978;2022-12-11T00:43:55;37.60;36.24;38.90;;
67314;Laerm;57663;51.436;5.978;2022-12-11T00:44:06;37.46;36.21;38.55;;
67314;Laerm;57663;51.436;5.978;2022-12-11T00:44:16;37.62;36.36;39.01;;
67314;Laerm;57663;51.436;5.978;2022-12-11T00:44:26;37.54;36.47;38.87;;
67314;Laerm;57663;51.436;5.978;2022-12-11T00:44:37;37.40;36.05;38.70;;
67314;Laerm;57663;51.436;5.978;2022-12-11T00:44:47;37.43;36.25;39.23;;
67314;Laerm;57663;51.436;5.978;2022-12-11T00:44:57;37.49;36.33;38.97;;
67314;Laerm;57663;51.436;5.978;2022-12-11T00:45:08;37.92;36.58;39.32;;
67314;Laerm;57663;51.436;5.978;2022-12-11T00:45:19;37.86;36.67;40.39;;
67314;Laerm;57663;51.436;5.978;2022-12-11T00:45:29;37.59;36.25;38.70;;
67314;Laerm;57663;51.436;5.978;2022-12-11T00:45:40;37.34;35.92;38.61;;
67314;Laerm;57663;51.436;5.978;2022-12-11T00:45:51;37.39;36.10;38.62;;
67314;Laerm;57663;51.436;5.978;2022-12-11T00:46:01;37.63;36.16;39.08;;
67314;Laerm;57663;51.436;5.978;2022-12-11T00:46:12;37.68;36.33;39.00;;
67314;Laerm;57663;51.436;5.978;2022-12-11T00:46:23;37.71;36.26;42.13;;
67314;Laerm;57663;51.436;5.978;2022-12-11T00:46:33;37.53;35.84;38.88;;
67314;Laerm;57663;51.436;5.978;2022-12-11T00:46:43;37.65;36.23;38.84;;
67314;Laerm;57663;51.436;5.978;2022-12-11T00:46:54;37.76;36.19;39.39;;
67314;Laerm;57663;51.436;5.978;2022-12-11T00:47:04;37.66;36.41;38.90;;
67314;Laerm;57663;51.436;5.978;2022-12-11T00:47:14;37.66;36.17;38.97;;
67314;Laerm;57663;51.436;5.978;2022-12-11T00:47:25;37.52;36.12;38.98;;
67314;Laerm;57663;51.436;5.978;2022-12-11T00:47:35;37.73;36.29;39.17;;
67314;Laerm;57663;51.436;5.978;2022-12-11T00:47:45;37.77;36.47;38.80;;
67314;Laerm;57663;51.436;5.978;2022-12-11T00:47:56;37.67;36.58;39.18;;
67314;Laerm;57663;51.436;5.978;2022-12-11T00:48:06;37.75;36.27;39.62;;
67314;Laerm;57663;51.436;5.978;2022-12-11T00:48:18;37.62;36.14;38.83;;
67314;Laerm;57663;51.436;5.978;2022-12-11T00:48:28;37.64;36.21;40.00;;
67314;Laerm;57663;51.436;5.978;2022-12-11T00:48:39;37.55;36.21;39.10;;
67314;Laerm;57663;51.436;5.978;2022-12-11T00:48:49;37.86;36.63;40.21;;
67314;Laerm;57663;51.436;5.978;2022-12-11T00:49:00;37.63;36.17;39.70;;
67314;Laerm;57663;51.436;5.978;2022-12-11T00:49:10;37.89;36.67;39.23;;
67314;Laerm;57663;51.436;5.978;2022-12-11T00:49:20;37.97;36.46;38.98;;
67314;Laerm;57663;51.436;5.978;2022-12-11T00:49:31;37.97;36.39;39.30;;
67314;Laerm;57663;51.436;5.978;2022-12-11T00:49:41;38.26;37.06;39.60;;
67314;Laerm;57663;51.436;5.978;2022-12-11T00:49:51;39.02;37.12;41.27;;
67314;Laerm;57663;51.436;5.978;2022-12-11T00:50:02;43.93;39.21;48.38;;
67314;Laerm;57663;51.436;5.978;2022-12-11T00:50:12;38.31;36.23;41.45;;
67314;Laerm;57663;51.436;5.978;2022-12-11T00:50:22;37.96;36.23;39.67;;
67314;Laerm;57663;51.436;5.978;2022-12-11T00:50:33;37.59;36.21;38.98;;
67314;Laerm;57663;51.436;5.978;2022-12-11T00:50:44;38.27;36.43;45.61;;
67314;Laerm;57663;51.436;5.978;2022-12-11T00:50:54;38.03;36.24;41.72;;
67314;Laerm;57663;51.436;5.978;2022-12-11T00:51:04;37.46;36.07;39.97;;
67314;Laerm;57663;51.436;5.978;2022-12-11T00:51:16;37.50;36.18;38.97;;
67314;Laerm;57663;51.436;5.978;2022-12-11T00:51:27;37.84;36.41;44.09;;
67314;Laerm;57663;51.436;5.978;2022-12-11T00:51:38;38.14;36.45;45.07;;
67314;Laerm;57663;51.436;5.978;2022-12-11T00:51:48;37.59;36.22;39.25;;
67314;Laerm;57663;51.436;5.978;2022-12-11T00:51:59;37.78;36.37;39.11;;
67314;Laerm;57663;51.436;5.978;2022-12-11T00:52:09;37.54;36.25;38.61;;
67314;Laerm;57663;51.436;5.978;2022-12-11T00:52:20;37.45;36.21;38.99;;
67314;Laerm;57663;51.436;5.978;2022-12-11T00:52:30;37.74;36.46;38.93;;
67314;Laerm;57663;51.436;5.978;2022-12-11T00:52:40;37.87;36.56;40.63;;
67314;Laerm;57663;51.436;5.978;2022-12-11T00:52:50;37.72;36.31;39.01;;
67314;Laerm;57663;51.436;5.978;2022-12-11T00:53:01;37.55;36.45;39.10;;
67314;Laerm;57663;51.436;5.978;2022-12-11T00:53:11;37.75;36.15;40.61;;
67314;Laerm;57663;51.436;5.978;2022-12-11T00:53:22;37.43;35.66;38.80;;
67314;Laerm;57663;51.436;5.978;2022-12-11T00:53:32;37.44;35.94;39.04;;
67314;Laerm;57663;51.436;5.978;2022-12-11T00:53:42;37.16;36.01;38.91;;
67314;Laerm;57663;51.436;5.978;2022-12-11T00:53:53;37.90;36.53;42.42;;
67314;Laerm;57663;51.436;5.978;2022-12-11T00:54:03;38.01;36.83;39.65;;
67314;Laerm;57663;51.436;5.978;2022-12-11T00:54:13;37.92;36.65;39.56;;
67314;Laerm;57663;51.436;5.978;2022-12-11T00:54:24;37.74;36.39;39.32;;
67314;Laerm;57663;51.436;5.978;2022-12-11T00:54:34;37.77;36.45;38.95;;
67314;Laerm;57663;51.436;5.978;2022-12-11T00:54:44;37.94;36.39;39.61;;
67314;Laerm;57663;51.436;5.978;2022-12-11T00:54:54;37.76;36.35;39.24;;
67314;Laerm;57663;51.436;5.978;2022-12-11T00:55:05;37.79;36.29;39.53;;
67314;Laerm;57663;51.436;5.978;2022-12-11T00:55:15;37.65;36.15;39.13;;
67314;Laerm;57663;51.436;5.978;2022-12-11T00:55:26;37.65;36.51;38.92;;
67314;Laerm;57663;51.436;5.978;2022-12-11T00:55:39;37.51;35.97;38.76;;
67314;Laerm;57663;51.436;5.978;2022-12-11T00:55:50;37.61;35.95;39.01;;
67314;Laerm;57663;51.436;5.978;2022-12-11T00:56:00;37.68;36.35;39.15;;
67314;Laerm;57663;51.436;5.978;2022-12-11T00:56:11;37.92;36.47;39.58;;
67314;Laerm;57663;51.436;5.978;2022-12-11T00:56:22;37.76;36.06;39.15;;
67314;Laerm;57663;51.436;5.978;2022-12-11T00:56:33;37.67;36.41;39.13;;
67314;Laerm;57663;51.436;5.978;2022-12-11T00:56:43;37.54;35.96;38.90;;
67314;Laerm;57663;51.436;5.978;2022-12-11T00:56:54;37.73;36.22;39.31;;
67314;Laerm;57663;51.436;5.978;2022-12-11T00:57:04;37.85;36.61;39.17;;
67314;Laerm;57663;51.436;5.978;2022-12-11T00:57:15;37.98;36.59;39.65;;
67314;Laerm;57663;51.436;5.978;2022-12-11T00:57:25;38.04;36.57;40.39;;
67314;Laerm;57663;51.436;5.978;2022-12-11T00:57:35;37.64;36.44;39.08;;
67314;Laerm;57663;51.436;5.978;2022-12-11T00:57:46;37.62;36.27;38.79;;
67314;Laerm;57663;51.436;5.978;2022-12-11T00:57:56;37.79;36.31;39.33;;
67314;Laerm;57663;51.436;5.978;2022-12-11T00:58:07;38.07;36.34;39.42;;
67314;Laerm;57663;51.436;5.978;2022-12-11T00:58:18;43.44;37.13;50.07;;
67314;Laerm;57663;51.436;5.978;2022-12-11T00:58:28;39.38;36.74;44.51;;
67314;Laerm;57663;51.436;5.978;2022-12-11T00:58:39;37.57;36.39;38.89;;
67314;Laerm;57663;51.436;5.978;2022-12-11T00:58:49;37.61;36.37;39.38;;
67314;Laerm;57663;51.436;5.978;2022-12-11T00:59:00;37.56;36.27;39.12;;
67314;Laerm;57663;51.436;5.978;2022-12-11T00:59:10;37.62;36.27;39.19;;
67314;Laerm;57663;51.436;5.978;2022-12-11T00:59:20;37.66;36.00;38.88;;
67314;Laerm;57663;51.436;5.978;2022-12-11T00:59:31;37.75;36.33;39.21;;
67314;Laerm;57663;51.436;5.978;2022-12-11T00:59:41;37.54;36.17;39.00;;
67314;Laerm;57663;51.436;5.978;2022-12-11T00:59:51;37.64;36.10;38.95;;